KCVN

Clovis Municipal Airport

Airport
ICAO code
KCVN
IATA Code
CVN
Summary
ICAO Region
NAM
ICAO Territory
Location

Clovis, New Mexico

Serving
Clovis
Elevation
4216 ft
Coordinates
34° 25' 36" N , 103° 4' 42" W
KCC
Airport RE
Hot and High Operations
Metar
KCVN 181356Z AUTO 02024G32KT 10SM CLR 08/02 A3011 RMK AO2 PK WND 02034/1348 SLP182 T00780022

Description

Clovis Municipal Airport is a public use airport located 6 nm east of the central business district of Clovis, a city in Curry County, New Mexico, USA.

Airport map

Aerial View

SKYbrary Partners:

Safety knowledge contributed by: